createdAt,value
2023-05-03T00:00:44.466Z,14.77
2023-05-03T00:03:13.565Z,8.97
2023-05-03T00:05:42.034Z,15.30
2023-05-03T00:08:12.048Z,11.67
2023-05-03T00:10:40.635Z,12.23
2023-05-03T00:13:11.322Z,11.33
2023-05-03T00:15:41.834Z,12.00
2023-05-03T00:18:10.754Z,10.33
2023-05-03T00:20:40.807Z,9.30
2023-05-03T00:23:09.137Z,16.17
2023-05-03T00:25:37.066Z,14.97
2023-05-03T00:28:06.234Z,13.90
2023-05-03T00:30:36.825Z,13.73
2023-05-03T00:33:05.571Z,11.70
2023-05-03T00:35:33.746Z,14.70
2023-05-03T00:38:03.922Z,12.40
2023-05-03T00:40:32.558Z,17.53
2023-05-03T00:43:03.139Z,9.90
2023-05-03T00:45:32.482Z,13.47
2023-05-03T00:48:09.099Z,14.87
2023-05-03T00:50:38.552Z,13.37
2023-05-03T00:53:07.751Z,10.47
2023-05-03T00:55:37.387Z,14.77
2023-05-03T00:58:09.852Z,12.00
2023-05-03T01:00:37.751Z,11.37
2023-05-03T01:03:09.889Z,14.70
2023-05-03T01:05:47.876Z,10.97
2023-05-03T01:08:24.340Z,15.77
2023-05-03T01:10:56.957Z,12.07
2023-05-03T01:13:32.648Z,12.23
2023-05-03T01:16:06.878Z,10.23
2023-05-03T01:18:44.140Z,15.53
2023-05-03T01:21:15.725Z,12.63
2023-05-03T01:23:50.202Z,13.43
2023-05-03T01:26:24.057Z,14.13
2023-05-03T01:28:53.230Z,16.93
2023-05-03T01:31:27.713Z,10.43
2023-05-03T01:34:06.469Z,13.30
2023-05-03T01:36:38.433Z,14.87
2023-05-03T01:39:12.386Z,13.27
2023-05-03T01:41:45.330Z,11.70
2023-05-03T01:44:18.449Z,15.70
2023-05-03T01:46:50.888Z,14.97
2023-05-03T01:49:19.269Z,14.47
2023-05-03T01:51:48.296Z,19.00
2023-05-03T01:54:22.081Z,13.47
2023-05-03T01:56:51.728Z,12.17
2023-05-03T01:59:19.817Z,12.70
2023-05-03T02:01:48.249Z,14.30
2023-05-03T02:04:16.231Z,13.30
2023-05-03T02:06:44.032Z,8.90
2023-05-03T02:09:14.862Z,14.83
2023-05-03T02:11:44.614Z,11.97
2023-05-03T02:14:13.918Z,12.80
2023-05-03T02:16:42.037Z,12.03
2023-05-03T02:19:11.325Z,11.37
2023-05-03T02:21:40.479Z,11.60
2023-05-03T02:24:12.366Z,19.47
2023-05-03T02:26:40.958Z,12.50
2023-05-03T02:29:10.055Z,13.17
2023-05-03T02:31:39.597Z,10.27
2023-05-03T02:34:12.969Z,11.33
2023-05-03T02:36:46.600Z,15.50
2023-05-03T02:39:17.711Z,13.43
2023-05-03T02:41:45.961Z,18.20
2023-05-03T02:44:14.550Z,12.43
2023-05-03T02:46:46.525Z,15.10
2023-05-03T02:49:14.810Z,11.87
2023-05-03T02:51:42.760Z,16.20
2023-05-03T02:54:11.397Z,14.37
2023-05-03T02:56:39.790Z,18.57
2023-05-03T02:59:08.306Z,12.97
2023-05-03T03:01:36.118Z,8.83
2023-05-03T03:04:09.427Z,12.90
2023-05-03T03:06:38.282Z,12.23
2023-05-03T03:09:06.437Z,15.97
2023-05-03T03:11:36.242Z,9.33
2023-05-03T03:14:04.519Z,12.43
2023-05-03T03:16:33.322Z,12.03
2023-05-03T03:19:01.506Z,12.30
2023-05-03T03:21:32.698Z,11.23
2023-05-03T03:24:01.489Z,14.47
2023-05-03T03:26:30.299Z,10.17
2023-05-03T03:29:01.388Z,9.80
2023-05-03T03:31:35.655Z,11.53
2023-05-03T03:34:03.772Z,13.97
2023-05-03T03:36:33.805Z,11.63
2023-05-03T03:39:01.843Z,11.90
2023-05-03T03:41:29.912Z,14.43
2023-05-03T03:43:59.133Z,15.07
2023-05-03T03:46:27.353Z,12.47
2023-05-03T03:49:04.644Z,14.10
2023-05-03T03:51:34.954Z,12.90
2023-05-03T03:54:03.227Z,10.77
2023-05-03T03:56:34.778Z,12.13
2023-05-03T03:59:04.089Z,14.77
2023-05-03T04:01:33.820Z,12.80
2023-05-03T04:04:04.068Z,11.07
2023-05-03T04:06:38.607Z,10.30
2023-05-03T04:09:13.555Z,10.43
2023-05-03T04:11:46.382Z,12.70
2023-05-03T04:14:14.321Z,11.37
2023-05-03T04:16:49.172Z,10.87
2023-05-03T04:19:19.338Z,10.30
2023-05-03T04:21:49.607Z,13.77
2023-05-03T04:24:19.074Z,11.57
2023-05-03T04:26:51.511Z,10.90
2023-05-03T04:29:23.690Z,15.37
2023-05-03T04:31:52.082Z,10.73
2023-05-03T04:34:22.178Z,13.00
2023-05-03T04:36:51.726Z,10.00
2023-05-03T04:39:20.735Z,14.83
2023-05-03T04:41:50.290Z,12.77
2023-05-03T04:44:18.816Z,11.23
2023-05-03T04:46:51.352Z,13.00
2023-05-03T04:49:24.850Z,14.50
2023-05-03T04:51:55.216Z,11.93
2023-05-03T04:54:26.392Z,12.00
2023-05-03T04:56:56.956Z,10.20
2023-05-03T04:59:26.308Z,14.90
2023-05-03T05:01:54.607Z,13.23
2023-05-03T05:04:29.271Z,13.53
2023-05-03T05:06:59.526Z,13.30
2023-05-03T05:09:32.142Z,11.70
2023-05-03T05:12:05.274Z,13.40
2023-05-03T05:14:33.817Z,11.87
2023-05-03T05:17:04.257Z,14.40
2023-05-03T05:19:34.159Z,10.80
2023-05-03T05:22:05.129Z,12.63
2023-05-03T05:24:38.388Z,10.17
2023-05-03T05:27:07.556Z,9.23
2023-05-03T05:29:36.991Z,11.03
2023-05-03T05:32:06.895Z,10.03
2023-05-03T05:34:45.531Z,11.50
2023-05-03T05:37:18.891Z,16.30
2023-05-03T05:39:47.598Z,11.77
2023-05-03T05:42:16.980Z,10.90
2023-05-03T05:44:46.464Z,12.47
2023-05-03T05:47:14.772Z,9.73
2023-05-03T05:49:45.864Z,8.30
2023-05-03T05:52:16.028Z,12.57
2023-05-03T05:54:46.295Z,9.60
2023-05-03T05:57:19.361Z,9.53
2023-05-03T05:59:50.014Z,12.50
2023-05-03T06:02:21.067Z,14.23
2023-05-03T06:04:51.745Z,12.73
2023-05-03T06:07:21.600Z,11.17
2023-05-03T06:09:49.438Z,9.83
2023-05-03T06:12:17.677Z,11.73
2023-05-03T06:15:02.393Z,11.37
2023-05-03T06:17:31.492Z,8.37
2023-05-03T06:20:05.332Z,10.23
2023-05-03T06:22:35.253Z,10.03
2023-05-03T06:25:07.432Z,8.40
2023-05-03T06:27:35.583Z,7.60
2023-05-03T06:30:04.621Z,11.03
2023-05-03T06:32:33.054Z,11.13
2023-05-03T06:35:03.337Z,9.60
2023-05-03T06:37:31.716Z,9.33
2023-05-03T06:40:05.714Z,8.20
2023-05-03T06:42:34.477Z,13.17
2023-05-03T06:45:03.801Z,13.13
2023-05-03T06:47:34.014Z,10.57
2023-05-03T06:50:02.567Z,9.47
2023-05-03T06:52:31.727Z,11.67
2023-05-03T06:55:02.678Z,9.03
2023-05-03T06:57:30.814Z,9.00
2023-05-03T06:59:59.780Z,10.83
2023-05-03T07:02:32.826Z,9.67
2023-05-03T07:05:02.442Z,9.10
2023-05-03T07:07:34.922Z,8.80
2023-05-03T07:10:05.773Z,8.07
2023-05-03T07:12:38.437Z,6.50
2023-05-03T07:15:07.552Z,9.20
2023-05-03T07:17:36.724Z,7.47
2023-05-03T07:20:07.484Z,9.27
2023-05-03T07:22:35.833Z,11.30
2023-05-03T07:25:08.393Z,7.57
2023-05-03T07:27:38.375Z,9.73
2023-05-03T07:30:08.386Z,7.87
2023-05-03T07:32:36.739Z,8.93
2023-05-03T07:35:04.966Z,7.13
2023-05-03T07:37:33.400Z,10.93
2023-05-03T07:40:01.890Z,8.37
2023-05-03T07:42:31.824Z,7.20
2023-05-03T07:45:01.224Z,10.20
2023-05-03T07:47:38.110Z,9.77
2023-05-03T07:50:08.335Z,9.17
2023-05-03T07:52:44.903Z,8.40
2023-05-03T07:55:12.837Z,9.50
2023-05-03T07:57:51.678Z,7.67
2023-05-03T08:00:26.178Z,8.53
2023-05-03T08:02:55.138Z,7.87
2023-05-03T08:05:24.856Z,9.83
2023-05-03T08:07:54.492Z,10.57
2023-05-03T08:10:25.123Z,8.20
2023-05-03T08:12:55.414Z,10.27
2023-05-03T08:15:23.582Z,8.00
2023-05-03T08:17:53.964Z,15.47
2023-05-03T08:20:22.614Z,7.37
2023-05-03T08:22:54.404Z,8.77
2023-05-03T08:25:23.545Z,8.30
2023-05-03T08:27:51.716Z,7.47
2023-05-03T08:30:23.573Z,7.53
2023-05-03T08:32:51.812Z,9.83
2023-05-03T08:35:20.370Z,10.77
2023-05-03T08:37:49.915Z,6.57
2023-05-03T08:40:18.386Z,9.60
2023-05-03T08:42:50.154Z,11.90
2023-05-03T08:45:18.524Z,11.60
2023-05-03T08:47:54.835Z,6.10
2023-05-03T08:50:24.669Z,6.50
2023-05-03T08:52:52.790Z,6.37
2023-05-03T08:55:21.827Z,8.63
2023-05-03T08:57:49.776Z,8.27
2023-05-03T09:00:19.943Z,7.33
2023-05-03T09:02:51.825Z,9.23
2023-05-03T09:05:34.703Z,7.37
2023-05-03T09:08:07.136Z,10.47
2023-05-03T09:10:44.224Z,8.37
2023-05-03T09:13:14.820Z,9.37
2023-05-03T09:15:47.318Z,9.80
2023-05-03T09:18:19.302Z,7.73
2023-05-03T09:20:53.177Z,8.30
2023-05-03T09:23:31.772Z,9.23
2023-05-03T09:26:01.145Z,7.37
2023-05-03T09:28:29.640Z,8.40
2023-05-03T09:31:10.841Z,10.43
2023-05-03T09:33:45.922Z,9.07
2023-05-03T09:36:14.604Z,5.73
2023-05-03T09:38:44.917Z,7.23
2023-05-03T09:41:13.872Z,8.03
2023-05-03T09:43:51.512Z,5.87
2023-05-03T09:46:21.224Z,7.13
2023-05-03T09:48:56.334Z,8.60
2023-05-03T09:51:26.285Z,8.03
2023-05-03T09:53:55.769Z,7.97
2023-05-03T09:56:26.808Z,7.47
2023-05-03T09:58:56.787Z,5.27
2023-05-03T10:01:27.043Z,6.00
2023-05-03T10:03:59.469Z,7.53
2023-05-03T10:06:34.103Z,9.70
2023-05-03T10:09:08.918Z,6.50
2023-05-03T10:11:38.779Z,7.73
2023-05-03T10:14:08.407Z,10.63
2023-05-03T10:16:42.362Z,11.50
2023-05-03T10:19:18.114Z,7.20
2023-05-03T10:21:58.132Z,7.90
2023-05-03T10:24:27.593Z,7.63
2023-05-03T10:26:59.347Z,9.57
2023-05-03T10:29:50.029Z,5.80
2023-05-03T10:32:39.777Z,10.07
2023-05-03T10:35:16.710Z,9.17
2023-05-03T10:37:47.226Z,9.50
2023-05-03T10:40:17.643Z,6.70
2023-05-03T10:42:53.332Z,8.50
2023-05-03T10:45:26.687Z,7.57
2023-05-03T10:48:20.542Z,8.73
2023-05-03T10:50:51.671Z,9.37
2023-05-03T10:53:45.002Z,5.30
2023-05-03T10:56:15.891Z,7.33
2023-05-03T10:58:49.491Z,5.87
2023-05-03T11:01:21.074Z,7.43
2023-05-03T11:03:53.792Z,5.13
2023-05-03T11:06:34.596Z,8.23
2023-05-03T11:09:04.449Z,5.23
2023-05-03T11:11:33.256Z,8.47
2023-05-03T11:14:09.280Z,6.67
2023-05-03T11:16:41.912Z,6.13
2023-05-03T11:20:04.243Z,10.33
2023-05-03T11:22:33.792Z,6.70
2023-05-03T11:25:02.796Z,6.20
2023-05-03T11:27:32.441Z,8.00
2023-05-03T11:30:03.646Z,7.37
2023-05-03T11:32:34.613Z,4.93
2023-05-03T11:35:07.552Z,8.27
2023-05-03T11:37:38.930Z,5.67
2023-05-03T11:40:16.236Z,6.87
2023-05-03T11:42:59.979Z,6.23
2023-05-03T11:45:33.322Z,5.57
2023-05-03T11:48:02.133Z,5.33
2023-05-03T11:50:46.383Z,7.13
2023-05-03T11:53:17.544Z,6.60
2023-05-03T11:55:48.175Z,5.77
2023-05-03T11:58:18.721Z,9.30
2023-05-03T12:00:49.550Z,7.03
2023-05-03T12:03:19.874Z,7.87
2023-05-03T12:05:49.756Z,6.33
2023-05-03T12:08:22.153Z,6.17
2023-05-03T12:10:55.257Z,5.20
2023-05-03T12:13:34.063Z,5.13
2023-05-03T12:18:56.219Z,5.80
2023-05-03T12:21:51.828Z,6.80
2023-05-03T12:24:32.187Z,9.10
2023-05-03T12:27:02.856Z,7.90
2023-05-03T12:29:35.338Z,7.37
2023-05-03T12:32:05.050Z,7.03
2023-05-03T12:34:36.730Z,6.07
2023-05-03T12:37:06.516Z,6.63
2023-05-03T12:39:39.637Z,7.83
2023-05-03T12:42:09.805Z,3.83
2023-05-03T12:44:43.511Z,4.37
2023-05-03T12:47:16.135Z,5.47
2023-05-03T12:49:52.390Z,5.30
2023-05-03T12:52:37.219Z,7.73
2023-05-03T12:55:11.326Z,4.83
2023-05-03T12:57:44.037Z,6.07
2023-05-03T13:05:35.020Z,8.40
2023-05-03T13:08:09.618Z,5.03
2023-05-03T13:10:42.152Z,4.90
2023-05-03T13:13:11.280Z,4.10
2023-05-03T13:15:41.501Z,5.73
2023-05-03T13:18:10.013Z,5.73
2023-05-03T13:20:39.588Z,5.07
2023-05-03T13:23:12.370Z,3.87
2023-05-03T13:25:42.159Z,5.07
2023-05-03T13:28:11.534Z,5.43
2023-05-03T13:30:40.704Z,3.90
2023-05-03T13:33:09.588Z,7.63
2023-05-03T13:35:39.227Z,4.30
2023-05-03T13:38:09.096Z,8.17
2023-05-03T13:40:38.930Z,7.53
2023-05-03T13:43:11.152Z,5.17
2023-05-03T13:45:48.037Z,6.00
2023-05-03T13:48:19.472Z,7.50
2023-05-03T13:50:49.804Z,4.07
2023-05-03T13:53:17.958Z,4.97
2023-05-03T13:55:45.855Z,4.80
2023-05-03T13:58:15.485Z,6.23
2023-05-03T14:00:48.186Z,4.67
2023-05-03T14:03:19.992Z,5.40
2023-05-03T14:05:52.644Z,2.92
2023-05-03T14:08:21.497Z,4.50
2023-05-03T14:10:52.781Z,4.07
2023-05-03T14:13:23.049Z,4.22
2023-05-03T14:15:51.659Z,6.68
2023-05-03T14:18:19.874Z,5.80
2023-05-03T14:20:50.472Z,4.07
2023-05-03T14:23:21.075Z,3.92
2023-05-03T14:25:49.510Z,3.47
2023-05-03T14:28:20.023Z,5.50
2023-05-03T14:30:50.219Z,4.63
2023-05-03T14:33:18.874Z,4.10
2023-05-03T14:35:48.212Z,6.07
2023-05-03T14:38:19.024Z,7.43
2023-05-03T14:40:47.765Z,3.92
2023-05-03T14:43:16.485Z,3.60
2023-05-03T14:45:48.228Z,6.85
2023-05-03T14:48:20.076Z,4.05
2023-05-03T14:50:52.181Z,3.70
2023-05-03T14:53:20.541Z,4.68
2023-05-03T14:55:50.140Z,4.53
2023-05-03T14:58:23.660Z,4.38
2023-05-03T15:00:52.207Z,4.10
2023-05-03T15:03:24.904Z,3.80
2023-05-03T15:05:54.699Z,6.07
2023-05-03T15:08:24.916Z,6.22
2023-05-03T15:10:52.987Z,5.47
2023-05-03T15:13:22.577Z,5.95
2023-05-03T15:15:53.254Z,2.63
2023-05-03T15:18:23.282Z,2.88
2023-05-03T15:20:51.759Z,3.72
2023-05-03T15:23:27.415Z,3.08
2023-05-03T15:25:57.079Z,4.90
2023-05-03T15:28:38.261Z,4.03
2023-05-03T15:31:07.914Z,3.70
2023-05-03T15:33:43.600Z,3.70
2023-05-03T15:36:19.845Z,3.95
2023-05-03T15:38:53.289Z,8.20
2023-05-03T15:41:25.690Z,4.85
2023-05-03T15:43:57.172Z,4.00
2023-05-03T15:46:26.058Z,6.68
2023-05-03T15:49:01.145Z,3.17
2023-05-03T15:51:33.996Z,3.27
2023-05-03T15:54:07.760Z,6.27
2023-05-03T15:56:45.249Z,9.37
2023-05-03T15:59:16.047Z,4.87
2023-05-03T16:01:46.930Z,5.00
2023-05-03T16:04:34.664Z,3.77
2023-05-03T16:07:04.565Z,5.67
2023-05-03T16:09:39.437Z,7.37
2023-05-03T16:12:12.420Z,2.57
2023-05-03T16:14:43.608Z,5.10
2023-05-03T16:17:11.709Z,4.83
2023-05-03T16:19:43.958Z,6.47
2023-05-03T16:22:29.671Z,6.07
2023-05-03T16:25:02.476Z,5.87
2023-05-03T16:27:31.393Z,4.37
2023-05-03T16:30:12.160Z,3.77
2023-05-03T16:32:42.543Z,6.57
2023-05-03T16:35:39.137Z,3.90
2023-05-03T16:38:13.386Z,4.17
2023-05-03T16:40:45.907Z,4.47
2023-05-03T16:43:20.504Z,5.33
2023-05-03T16:45:57.132Z,8.37
2023-05-03T16:48:31.602Z,5.43
2023-05-03T16:51:02.385Z,5.10
2023-05-03T16:53:33.380Z,3.23
2023-05-03T16:56:05.217Z,2.30
2023-05-03T16:58:34.284Z,4.30
2023-05-03T17:01:03.812Z,3.80
2023-05-03T17:03:33.716Z,2.70
2023-05-03T17:06:05.904Z,5.83
2023-05-03T17:08:36.915Z,3.47
2023-05-03T17:11:08.897Z,3.80
2023-05-03T17:13:42.891Z,4.70
2023-05-03T17:16:15.587Z,5.17
2023-05-03T17:18:50.613Z,4.37
2023-05-03T17:21:20.781Z,4.00
2023-05-03T17:23:52.145Z,3.53
2023-05-03T17:26:22.993Z,4.77
2023-05-03T17:28:54.225Z,6.27
2023-05-03T17:31:22.747Z,4.33
2023-05-03T17:33:52.990Z,2.47
2023-05-03T17:36:24.154Z,3.53
2023-05-03T17:38:54.154Z,6.07
2023-05-03T17:41:22.473Z,8.10
2023-05-03T17:43:56.566Z,3.33
2023-05-03T17:46:24.888Z,4.03
2023-05-03T17:48:55.362Z,3.97
2023-05-03T17:51:24.851Z,3.13
2023-05-03T17:53:56.167Z,5.97
2023-05-03T17:56:27.836Z,3.93
2023-05-03T17:58:57.343Z,4.90
2023-05-03T18:01:29.407Z,5.50
2023-05-03T18:03:58.898Z,4.23
2023-05-03T18:06:29.633Z,5.37
2023-05-03T18:09:00.565Z,3.20
2023-05-03T18:11:29.609Z,4.30
2023-05-03T18:13:58.571Z,7.00
2023-05-03T18:16:28.778Z,5.67
2023-05-03T18:18:56.983Z,4.43
2023-05-03T18:21:27.927Z,5.90
2023-05-03T18:24:01.164Z,5.67
2023-05-03T18:26:32.416Z,4.20
2023-05-03T18:29:01.858Z,7.03
2023-05-03T18:31:30.481Z,2.90
2023-05-03T18:34:02.776Z,7.53
2023-05-03T18:36:31.421Z,4.17
2023-05-03T18:39:18.175Z,4.03
2023-05-03T18:41:46.134Z,6.30
2023-05-03T18:44:18.308Z,5.63
2023-05-03T18:46:51.105Z,3.63
2023-05-03T18:49:22.347Z,5.87
2023-05-03T18:51:53.460Z,5.90
2023-05-03T18:54:23.329Z,3.50
2023-05-03T18:56:53.737Z,3.10
2023-05-03T18:59:22.176Z,6.40
2023-05-03T19:01:56.512Z,4.57
2023-05-03T19:04:26.046Z,3.13
2023-05-03T19:06:54.685Z,6.87
2023-05-03T19:09:25.840Z,6.07
2023-05-03T19:11:56.213Z,13.47
2023-05-03T19:14:25.662Z,4.47
2023-05-03T19:16:53.617Z,3.60
2023-05-03T19:19:21.651Z,8.23
2023-05-03T19:21:49.535Z,7.67
2023-05-03T19:24:20.821Z,3.40
2023-05-03T19:26:50.476Z,3.87
2023-05-03T19:29:20.109Z,4.67
2023-05-03T19:31:51.969Z,4.73
2023-05-03T19:34:21.248Z,5.97
2023-05-03T19:36:50.910Z,7.73
2023-05-03T19:39:19.927Z,6.37
2023-05-03T19:41:48.895Z,4.13
2023-05-03T19:44:20.260Z,6.87
2023-05-03T19:46:52.564Z,4.77
2023-05-03T19:49:21.101Z,6.50
2023-05-03T19:51:53.650Z,6.57
2023-05-03T19:54:22.192Z,4.90
2023-05-03T19:56:52.528Z,5.70
2023-05-03T19:59:22.823Z,9.70
2023-05-03T20:01:51.153Z,9.37
2023-05-03T20:04:20.583Z,5.80
2023-05-03T20:06:48.517Z,6.07
2023-05-03T20:09:17.591Z,5.17
2023-05-03T20:11:48.738Z,4.40
2023-05-03T20:14:17.542Z,7.10
2023-05-03T20:16:47.542Z,3.23
2023-05-03T20:19:18.197Z,4.50
2023-05-03T20:21:46.141Z,7.00
2023-05-03T20:24:18.325Z,3.63
2023-05-03T20:26:46.599Z,5.73
2023-05-03T20:29:14.964Z,5.57
2023-05-03T20:31:46.555Z,6.33
2023-05-03T20:34:19.758Z,5.03
2023-05-03T20:36:48.132Z,4.77
2023-05-03T20:39:16.306Z,4.97
2023-05-03T20:41:44.438Z,6.20
2023-05-03T20:44:14.397Z,5.70
2023-05-03T20:46:42.293Z,6.73
2023-05-03T20:49:10.592Z,6.07
2023-05-03T20:51:40.240Z,6.87
2023-05-03T20:54:12.283Z,5.63
2023-05-03T20:56:40.654Z,4.93
2023-05-03T20:59:12.672Z,5.40
2023-05-03T21:01:41.431Z,5.83
2023-05-03T21:04:10.011Z,7.03
2023-05-03T21:06:44.894Z,8.13
2023-05-03T21:09:14.508Z,4.97
2023-05-03T21:11:43.853Z,5.30
2023-05-03T21:14:13.936Z,7.63
2023-05-03T21:16:42.899Z,6.20
2023-05-03T21:19:11.631Z,10.47
2023-05-03T21:21:42.565Z,5.87
2023-05-03T21:24:11.483Z,8.00
2023-05-03T21:26:40.395Z,5.43
2023-05-03T21:29:08.348Z,5.87
2023-05-03T21:31:39.456Z,6.30
2023-05-03T21:34:07.353Z,3.27
2023-05-03T21:36:35.411Z,6.60
2023-05-03T21:39:08.215Z,6.57
2023-05-03T21:41:37.525Z,6.93
2023-05-03T21:44:09.083Z,5.97
2023-05-03T21:46:37.128Z,5.30
2023-05-03T21:49:06.072Z,5.03
2023-05-03T21:51:36.363Z,8.10
2023-05-03T21:54:10.407Z,5.67
2023-05-03T21:56:38.195Z,7.00
2023-05-03T21:59:06.055Z,9.37
2023-05-03T22:01:34.150Z,5.87
2023-05-03T22:04:02.173Z,5.50
2023-05-03T22:06:31.025Z,7.13
2023-05-03T22:09:00.156Z,8.57
2023-05-03T22:11:29.868Z,7.03
2023-05-03T22:14:08.123Z,3.70
2023-05-03T22:16:39.853Z,8.13
2023-05-03T22:19:08.098Z,4.97
2023-05-03T22:21:36.486Z,8.07
2023-05-03T22:24:05.778Z,8.33
2023-05-03T22:26:34.972Z,7.60
2023-05-03T22:29:03.292Z,5.80
2023-05-03T22:31:31.715Z,15.77
2023-05-03T22:33:59.894Z,8.77
2023-05-03T22:36:28.342Z,9.27
2023-05-03T22:39:00.925Z,13.20
2023-05-03T22:41:29.028Z,12.20
2023-05-03T22:44:06.200Z,6.33
2023-05-03T22:46:34.577Z,9.10
2023-05-03T22:49:03.944Z,7.37
2023-05-03T22:51:32.585Z,8.40
2023-05-03T22:54:01.098Z,9.40
2023-05-03T22:56:30.506Z,8.30
2023-05-03T22:59:01.508Z,7.70
2023-05-03T23:01:30.123Z,7.90
2023-05-03T23:03:58.525Z,7.07
2023-05-03T23:06:27.678Z,7.27
2023-05-03T23:08:55.548Z,9.53
2023-05-03T23:11:25.361Z,6.70
2023-05-03T23:13:55.425Z,7.77
2023-05-03T23:16:27.019Z,7.27
2023-05-03T23:18:55.744Z,9.27
2023-05-03T23:21:23.813Z,5.30
2023-05-03T23:23:51.719Z,4.87
2023-05-03T23:26:20.379Z,10.40
2023-05-03T23:28:51.217Z,9.37
2023-05-03T23:31:20.351Z,7.77
2023-05-03T23:33:53.020Z,6.63
2023-05-03T23:36:21.342Z,7.27
2023-05-03T23:38:51.423Z,8.03
2023-05-03T23:41:19.375Z,7.40
2023-05-03T23:43:50.570Z,6.43
2023-05-03T23:46:18.792Z,6.53
2023-05-03T23:48:51.439Z,6.63
2023-05-03T23:51:20.865Z,7.20
2023-05-03T23:53:48.654Z,10.60
2023-05-03T23:56:17.217Z,5.97
2023-05-03T23:58:46.974Z,6.00
